createdAt,value
2019-02-18T00:01:28.614Z,12.23
2019-02-18T00:03:56.297Z,10.27
2019-02-18T00:06:23.978Z,12.37
2019-02-18T00:08:52.594Z,12.60
2019-02-18T00:11:20.266Z,10.73
2019-02-18T00:13:48.216Z,11.70
2019-02-18T00:16:16.280Z,10.43
2019-02-18T00:18:43.920Z,8.90
2019-02-18T00:21:11.941Z,11.07
2019-02-18T00:23:40.606Z,9.67
2019-02-18T00:26:08.898Z,9.00
2019-02-18T00:28:37.132Z,12.27
2019-02-18T00:31:04.869Z,9.67
2019-02-18T00:33:32.834Z,9.43
2019-02-18T00:36:00.512Z,11.00
2019-02-18T00:38:28.728Z,10.50
2019-02-18T00:40:56.621Z,10.97
2019-02-18T00:43:24.652Z,9.17
2019-02-18T00:45:52.940Z,9.80
2019-02-18T00:48:21.235Z,9.73
2019-02-18T00:50:49.307Z,11.40
2019-02-18T00:53:17.685Z,9.37
2019-02-18T00:55:45.952Z,8.30
2019-02-18T00:58:13.922Z,10.13
2019-02-18T01:00:42.054Z,10.67
2019-02-18T01:03:10.410Z,9.80
2019-02-18T01:05:38.615Z,10.50
2019-02-18T01:08:06.656Z,10.40
2019-02-18T01:10:34.672Z,7.83
2019-02-18T01:13:02.708Z,10.43
2019-02-18T01:15:30.920Z,10.50
2019-02-18T01:17:58.869Z,10.07
2019-02-18T01:20:26.779Z,9.50
2019-02-18T01:22:55.043Z,10.80
2019-02-18T01:25:22.712Z,10.00
2019-02-18T01:27:50.633Z,12.00
2019-02-18T01:30:18.869Z,8.60
2019-02-18T01:32:47.032Z,8.40
2019-02-18T01:35:15.269Z,10.50
2019-02-18T01:37:46.109Z,8.33
2019-02-18T01:40:14.000Z,10.10
2019-02-18T01:42:41.646Z,9.10
2019-02-18T01:45:10.062Z,8.30
2019-02-18T01:47:37.708Z,8.87
2019-02-18T01:50:06.040Z,8.30
2019-02-18T01:52:34.205Z,11.33
2019-02-18T01:55:02.508Z,7.33
2019-02-18T01:57:30.809Z,8.73
2019-02-18T01:59:58.789Z,7.93
2019-02-18T02:02:26.811Z,8.70
2019-02-18T02:04:55.244Z,9.70
2019-02-18T02:07:23.325Z,8.17
2019-02-18T02:09:51.273Z,10.30
2019-02-18T02:12:19.617Z,9.37
2019-02-18T02:14:47.826Z,8.40
2019-02-18T02:17:15.798Z,9.73
2019-02-18T02:19:43.549Z,10.03
2019-02-18T02:22:11.766Z,8.80
2019-02-18T02:24:39.426Z,9.37
2019-02-18T02:27:07.471Z,7.90
2019-02-18T02:29:35.558Z,7.43
2019-02-18T02:32:03.504Z,9.93
2019-02-18T02:34:31.716Z,9.30
2019-02-18T02:36:59.741Z,10.10
2019-02-18T02:39:27.388Z,8.90
2019-02-18T02:41:55.529Z,9.00
2019-02-18T02:44:23.454Z,7.87
2019-02-18T02:46:51.379Z,8.63
2019-02-18T02:49:19.595Z,6.80
2019-02-18T02:51:47.972Z,9.37
2019-02-18T02:54:16.058Z,10.40
2019-02-18T02:56:43.701Z,10.17
2019-02-18T02:59:11.676Z,10.83
2019-02-18T03:01:40.058Z,10.47
2019-02-18T03:04:08.029Z,10.73
2019-02-18T03:06:36.356Z,7.77
2019-02-18T03:09:07.209Z,9.17
2019-02-18T03:11:35.465Z,10.10
2019-02-18T03:14:03.129Z,11.00
2019-02-18T03:16:31.056Z,8.43
2019-02-18T03:18:58.762Z,10.10
2019-02-18T03:21:26.438Z,8.40
2019-02-18T03:23:55.064Z,9.87
2019-02-18T03:26:23.401Z,8.60
2019-02-18T03:29:10.461Z,12.63
2019-02-18T03:31:38.830Z,12.47
2019-02-18T03:34:12.435Z,10.27
2019-02-18T03:36:40.445Z,9.23
2019-02-18T03:39:08.210Z,9.60
2019-02-18T03:41:36.236Z,11.10
2019-02-18T03:44:03.893Z,8.90
2019-02-18T03:46:31.571Z,10.50
2019-02-18T03:48:59.525Z,9.27
2019-02-18T03:51:27.301Z,9.20
2019-02-18T03:53:55.695Z,9.40
2019-02-18T03:56:23.735Z,8.07
2019-02-18T03:58:51.768Z,12.77
2019-02-18T04:01:20.093Z,9.63
2019-02-18T04:03:48.073Z,8.73
2019-02-18T04:06:16.426Z,12.53
2019-02-18T04:08:44.086Z,9.33
2019-02-18T04:11:12.084Z,8.37
2019-02-18T04:13:40.086Z,7.47
2019-02-18T04:16:08.430Z,11.10
2019-02-18T04:18:36.583Z,8.33
2019-02-18T04:21:04.574Z,9.60
2019-02-18T04:23:32.488Z,6.60
2019-02-18T04:26:00.170Z,9.97
2019-02-18T04:28:28.282Z,8.47
2019-02-18T04:30:56.938Z,8.30
2019-02-18T04:33:25.514Z,7.37
2019-02-18T04:35:53.413Z,9.93
2019-02-18T04:38:21.378Z,8.77
2019-02-18T04:40:49.116Z,11.73
2019-02-18T04:43:17.073Z,9.60
2019-02-18T04:45:44.961Z,8.47
2019-02-18T04:48:13.009Z,7.57
2019-02-18T04:50:40.905Z,12.10
2019-02-18T04:53:08.849Z,11.00
2019-02-18T04:55:37.469Z,11.20
2019-02-18T04:58:06.226Z,10.03
2019-02-18T05:00:34.416Z,9.30
2019-02-18T05:03:02.079Z,9.40
2019-02-18T05:05:29.722Z,9.13
2019-02-18T05:07:58.026Z,9.03
2019-02-18T05:10:25.957Z,9.13
2019-02-18T05:12:53.966Z,10.77
2019-02-18T05:15:21.909Z,10.40
2019-02-18T05:17:49.907Z,9.27
2019-02-18T05:20:17.875Z,10.50
2019-02-18T05:22:45.843Z,7.97
2019-02-18T05:25:14.094Z,6.57
2019-02-18T05:27:42.405Z,8.10
2019-02-18T05:30:10.354Z,7.87
2019-02-18T05:32:38.329Z,8.33
2019-02-18T05:35:06.131Z,9.00
2019-02-18T05:37:34.070Z,10.20
2019-02-18T05:40:01.996Z,12.23
2019-02-18T05:42:29.980Z,8.70
2019-02-18T05:44:58.689Z,8.90
2019-02-18T05:47:26.873Z,10.30
2019-02-18T05:49:54.858Z,8.83
2019-02-18T05:52:22.805Z,8.43
2019-02-18T05:54:51.148Z,9.13
2019-02-18T05:57:19.056Z,8.40
2019-02-18T05:59:47.091Z,7.77
2019-02-18T06:02:15.114Z,8.23
2019-02-18T06:04:43.057Z,7.70
2019-02-18T06:07:10.713Z,8.83
2019-02-18T06:09:38.727Z,7.90
2019-02-18T06:12:06.392Z,9.97
2019-02-18T06:14:34.649Z,7.60
2019-02-18T06:17:02.891Z,10.47
2019-02-18T06:19:31.081Z,10.03
2019-02-18T06:21:58.761Z,9.40
2019-02-18T06:24:26.670Z,9.90
2019-02-18T06:26:54.393Z,9.97
2019-02-18T06:29:22.902Z,9.40
2019-02-18T06:31:51.243Z,10.70
2019-02-18T06:34:19.197Z,11.70
2019-02-18T06:36:47.248Z,10.73
2019-02-18T06:39:14.902Z,8.90
2019-02-18T06:41:43.279Z,9.97
2019-02-18T06:44:11.105Z,9.53
2019-02-18T06:46:50.756Z,9.20
2019-02-18T06:49:20.748Z,9.33
2019-02-18T06:51:49.118Z,9.30
2019-02-18T06:54:16.791Z,10.33
2019-02-18T06:57:05.733Z,7.90
2019-02-18T06:59:37.493Z,9.23
2019-02-18T07:02:10.857Z,9.80
2019-02-18T07:04:57.646Z,9.60
2019-02-18T07:07:31.719Z,11.30
2019-02-18T07:10:03.112Z,9.43
2019-02-18T07:12:33.520Z,10.50
2019-02-18T07:15:01.632Z,9.70
2019-02-18T07:17:29.946Z,7.90
2019-02-18T07:19:58.242Z,9.33
2019-02-18T07:22:27.615Z,10.27
2019-02-18T07:24:55.809Z,10.70
2019-02-18T07:27:24.372Z,9.50
2019-02-18T07:29:52.020Z,9.60
2019-02-18T07:32:20.285Z,8.73
2019-02-18T07:34:48.207Z,8.73
2019-02-18T07:37:16.274Z,9.03
2019-02-18T07:39:44.326Z,10.80
2019-02-18T07:42:12.918Z,12.97
2019-02-18T07:44:41.275Z,8.03
2019-02-18T07:47:09.251Z,9.30
2019-02-18T07:49:37.037Z,8.77
2019-02-18T07:52:04.712Z,11.90
2019-02-18T07:54:32.702Z,8.20
2019-02-18T07:57:00.381Z,10.47
2019-02-18T07:59:28.070Z,10.50
2019-02-18T08:01:56.363Z,10.83
2019-02-18T08:04:24.434Z,12.23
2019-02-18T08:06:52.425Z,9.73
2019-02-18T08:09:20.782Z,9.50
2019-02-18T08:11:49.164Z,9.90
2019-02-18T08:14:17.325Z,8.37
2019-02-18T08:16:45.375Z,12.33
2019-02-18T08:19:15.512Z,9.70
2019-02-18T08:21:43.390Z,9.07
2019-02-18T08:24:11.479Z,9.93
2019-02-18T08:26:39.410Z,12.43
2019-02-18T08:29:07.821Z,9.27
2019-02-18T08:31:36.198Z,10.83
2019-02-18T08:34:03.848Z,8.73
2019-02-18T08:36:31.825Z,12.23
2019-02-18T08:39:00.102Z,11.53
2019-02-18T08:41:28.369Z,10.10
2019-02-18T08:43:56.034Z,11.43
2019-02-18T08:46:24.143Z,10.80
2019-02-18T08:48:52.684Z,11.20
2019-02-18T08:51:20.733Z,11.30
2019-02-18T08:53:48.398Z,10.17
2019-02-18T08:56:16.374Z,11.57
2019-02-18T08:58:44.409Z,11.27
2019-02-18T09:01:12.099Z,9.70
2019-02-18T09:03:40.055Z,9.73
2019-02-18T09:06:08.600Z,9.60
2019-02-18T09:08:36.774Z,12.47
2019-02-18T09:11:04.836Z,10.63
2019-02-18T09:13:33.078Z,10.77
2019-02-18T09:16:01.533Z,11.30
2019-02-18T09:18:29.749Z,15.50
2019-02-18T09:20:57.794Z,14.80
2019-02-18T09:23:42.093Z,12.97
2019-02-18T09:26:10.045Z,10.83
2019-02-18T09:28:38.428Z,12.57
2019-02-18T09:31:06.841Z,14.07
2019-02-18T09:33:34.850Z,11.73
2019-02-18T09:36:02.830Z,14.80
2019-02-18T09:38:30.777Z,12.27
2019-02-18T09:40:59.086Z,11.40
2019-02-18T09:43:26.749Z,10.97
2019-02-18T09:45:55.165Z,12.30
2019-02-18T09:48:22.845Z,10.73
2019-02-18T09:50:51.381Z,12.70
2019-02-18T09:53:19.327Z,14.50
2019-02-18T09:55:47.333Z,11.27
2019-02-18T09:58:15.018Z,14.10
2019-02-18T10:00:43.011Z,20.73
2019-02-18T10:03:11.327Z,12.93
2019-02-18T10:05:39.606Z,11.80
2019-02-18T10:08:07.586Z,12.90
2019-02-18T10:10:35.593Z,13.47
2019-02-18T10:13:03.618Z,11.33
2019-02-18T10:15:31.625Z,10.13
2019-02-18T10:17:59.538Z,9.87
2019-02-18T10:20:27.840Z,10.10
2019-02-18T10:22:56.203Z,11.60
2019-02-18T10:25:23.849Z,8.50
2019-02-18T10:27:52.255Z,13.23
2019-02-18T10:30:20.840Z,13.77
2019-02-18T10:32:49.211Z,12.40
2019-02-18T10:35:17.495Z,11.97
2019-02-18T10:37:54.623Z,12.17
2019-02-18T10:40:14.917Z,11.47
2019-02-18T10:42:43.106Z,13.80
2019-02-18T10:45:11.410Z,12.80
2019-02-18T10:47:39.109Z,11.60
2019-02-18T10:50:07.751Z,12.70
2019-02-18T10:52:35.719Z,9.67
2019-02-18T10:55:03.538Z,10.47
2019-02-18T10:57:31.528Z,13.67
2019-02-18T11:00:00.365Z,9.43
2019-02-18T11:02:28.405Z,11.80
2019-02-18T11:04:56.350Z,10.20
2019-02-18T11:07:24.886Z,11.47
2019-02-18T11:09:53.499Z,10.83
2019-02-18T11:12:22.055Z,11.30
2019-02-18T11:14:50.071Z,10.50
2019-02-18T11:17:18.702Z,11.70
2019-02-18T11:19:47.130Z,13.53
2019-02-18T11:22:15.065Z,10.83
2019-02-18T11:24:43.174Z,15.20
2019-02-18T11:27:11.142Z,11.63
2019-02-18T11:29:38.810Z,12.03
2019-02-18T11:32:06.767Z,10.83
2019-02-18T11:34:35.089Z,12.47
2019-02-18T11:37:02.744Z,13.30
2019-02-18T11:39:31.058Z,12.50
2019-02-18T11:41:59.230Z,13.07
2019-02-18T11:44:26.903Z,16.57
2019-02-18T11:46:54.553Z,10.67
2019-02-18T11:49:22.495Z,12.63
2019-02-18T11:51:50.436Z,11.30
2019-02-18T11:54:18.567Z,14.43
2019-02-18T11:56:46.236Z,10.60
2019-02-18T11:59:23.931Z,11.90
2019-02-18T12:01:44.281Z,11.97
2019-02-18T12:04:12.256Z,11.77
2019-02-18T12:06:40.647Z,10.97
2019-02-18T12:09:08.885Z,11.50
2019-02-18T12:11:38.385Z,11.43
2019-02-18T12:14:06.483Z,10.57
2019-02-18T12:16:34.741Z,13.20
2019-02-18T12:19:02.972Z,12.80
2019-02-18T12:21:30.945Z,11.40
2019-02-18T12:23:58.888Z,10.70
2019-02-18T12:26:26.910Z,8.97
2019-02-18T12:28:54.890Z,12.57
2019-02-18T12:31:23.299Z,10.53
2019-02-18T12:33:52.044Z,9.83
2019-02-18T12:36:20.773Z,9.17
2019-02-18T12:38:48.695Z,11.73
2019-02-18T12:41:17.225Z,12.50
2019-02-18T12:43:45.726Z,9.83
2019-02-18T12:46:16.039Z,10.77
2019-02-18T12:48:43.694Z,9.80
2019-02-18T12:51:11.993Z,9.80
2019-02-18T12:53:40.001Z,10.13
2019-02-18T12:56:08.646Z,10.27
2019-02-18T12:58:36.662Z,11.50
2019-02-18T13:01:06.173Z,11.00
2019-02-18T13:03:34.390Z,10.03
2019-02-18T13:06:02.830Z,9.67
2019-02-18T13:08:30.790Z,12.50
2019-02-18T13:10:58.745Z,8.67
2019-02-18T13:13:27.144Z,8.30
2019-02-18T13:15:55.221Z,9.40
2019-02-18T13:18:23.532Z,9.87
2019-02-18T13:20:52.206Z,9.63
2019-02-18T13:23:20.240Z,6.63
2019-02-18T13:25:48.488Z,9.37
2019-02-18T13:28:16.314Z,10.10
2019-02-18T13:30:44.920Z,8.58
2019-02-18T13:33:12.953Z,11.18
2019-02-18T13:35:41.254Z,8.00
2019-02-18T13:38:09.605Z,10.43
2019-02-18T13:40:37.957Z,6.83
2019-02-18T13:43:06.289Z,10.00
2019-02-18T13:45:34.022Z,7.67
2019-02-18T13:48:01.930Z,11.73
2019-02-18T13:50:30.190Z,9.67
2019-02-18T13:52:58.428Z,10.80
2019-02-18T13:55:26.393Z,9.70
2019-02-18T13:57:55.020Z,9.13
2019-02-18T14:00:23.382Z,9.17
2019-02-18T14:02:51.037Z,10.03
2019-02-18T14:05:19.146Z,8.17
2019-02-18T14:07:46.862Z,8.03
2019-02-18T14:10:15.282Z,9.33
2019-02-18T14:12:42.944Z,9.13
2019-02-18T14:15:11.277Z,8.70
2019-02-18T14:17:39.256Z,7.40
2019-02-18T14:20:08.970Z,8.07
2019-02-18T14:22:36.943Z,7.20
2019-02-18T14:25:05.034Z,8.00
2019-02-18T14:27:33.615Z,7.73
2019-02-18T14:30:01.722Z,9.73
2019-02-18T14:32:29.774Z,3.27
2019-02-18T14:34:58.245Z,2.97
2019-02-18T14:37:26.638Z,4.87
2019-02-18T14:39:54.658Z,3.00
2019-02-18T14:42:24.558Z,3.23
2019-02-18T14:44:52.715Z,9.40
2019-02-18T14:47:20.762Z,3.40
2019-02-18T14:49:48.781Z,3.43
2019-02-18T14:52:17.019Z,3.67
2019-02-18T14:54:44.936Z,3.23
2019-02-18T14:57:13.082Z,3.20
2019-02-18T14:59:41.490Z,6.03
2019-02-18T15:02:09.264Z,3.83
2019-02-18T15:04:37.251Z,3.73
2019-02-18T15:07:05.197Z,6.10
2019-02-18T15:09:33.669Z,2.80
2019-02-18T15:12:01.953Z,6.97
2019-02-18T15:14:29.997Z,3.03
2019-02-18T15:16:57.656Z,3.03
2019-02-18T15:19:25.321Z,3.13
2019-02-18T15:21:53.321Z,8.67
2019-02-18T15:24:20.977Z,4.40
2019-02-18T15:26:48.672Z,3.33
2019-02-18T15:29:16.413Z,2.90
2019-02-18T15:31:44.414Z,3.90
2019-02-18T15:34:12.119Z,6.93
2019-02-18T15:36:40.678Z,5.57
2019-02-18T15:39:08.760Z,10.93
2019-02-18T15:41:37.067Z,8.10
2019-02-18T15:44:05.359Z,4.77
2019-02-18T15:46:33.684Z,2.93
2019-02-18T15:49:02.644Z,3.50
2019-02-18T15:51:30.985Z,3.80
2019-02-18T15:53:58.938Z,2.73
2019-02-18T15:56:26.686Z,4.50
2019-02-18T15:58:54.774Z,3.23
2019-02-18T16:01:22.761Z,3.57
2019-02-18T16:03:50.425Z,5.80
2019-02-18T16:06:18.346Z,3.90
2019-02-18T16:08:46.281Z,3.60
2019-02-18T16:11:14.581Z,4.10
2019-02-18T16:13:42.924Z,4.83
2019-02-18T16:16:11.262Z,3.33
2019-02-18T16:18:39.001Z,3.73
2019-02-18T16:21:07.336Z,4.80
2019-02-18T16:23:35.303Z,5.17
2019-02-18T16:26:02.947Z,4.50
2019-02-18T16:28:30.637Z,4.00
2019-02-18T16:30:58.950Z,4.70
2019-02-18T16:33:26.943Z,7.13
2019-02-18T16:35:54.941Z,3.40
2019-02-18T16:38:23.249Z,4.30
2019-02-18T16:40:51.210Z,4.53
2019-02-18T16:43:19.892Z,4.13
2019-02-18T16:45:48.192Z,4.60
2019-02-18T16:48:16.508Z,3.67
2019-02-18T16:50:44.707Z,5.73
2019-02-18T16:53:12.920Z,6.53
2019-02-18T16:55:40.920Z,6.43
2019-02-18T16:58:09.174Z,3.93
2019-02-18T17:00:37.194Z,5.57
2019-02-18T17:03:04.841Z,4.37
2019-02-18T17:05:32.729Z,6.77
2019-02-18T17:08:00.406Z,4.77
2019-02-18T17:10:28.408Z,4.93
2019-02-18T17:12:57.023Z,6.50
2019-02-18T17:15:25.019Z,5.23
2019-02-18T17:17:53.037Z,4.60
2019-02-18T17:20:21.004Z,6.97
2019-02-18T17:22:48.938Z,5.17
2019-02-18T17:25:16.918Z,6.10
2019-02-18T17:27:45.450Z,4.80
2019-02-18T17:30:13.755Z,6.67
2019-02-18T17:32:42.038Z,4.53
2019-02-18T17:35:11.977Z,4.90
2019-02-18T17:37:39.926Z,6.20
2019-02-18T17:40:08.349Z,5.53
2019-02-18T17:42:36.950Z,7.53
2019-02-18T17:45:05.700Z,5.50
2019-02-18T17:47:33.737Z,7.00
2019-02-18T17:50:01.728Z,8.97
2019-02-18T17:52:29.413Z,4.93
2019-02-18T17:54:57.590Z,5.87
2019-02-18T17:57:25.898Z,7.20
2019-02-18T17:59:53.953Z,12.63
2019-02-18T18:02:22.252Z,8.93
2019-02-18T18:04:50.479Z,9.37
2019-02-18T18:07:18.124Z,7.20
2019-02-18T18:09:46.313Z,9.60
2019-02-18T18:12:14.285Z,9.73
2019-02-18T18:14:42.873Z,12.57
2019-02-18T18:17:11.105Z,11.97
2019-02-18T18:19:38.855Z,7.33
2019-02-18T18:22:07.272Z,10.10
2019-02-18T18:24:35.024Z,8.20
2019-02-18T18:27:02.673Z,8.70
2019-02-18T18:29:31.210Z,9.87
2019-02-18T18:31:58.864Z,7.43
2019-02-18T18:34:26.940Z,7.63
2019-02-18T18:36:54.598Z,4.73
2019-02-18T18:39:23.083Z,5.80
2019-02-18T18:41:51.413Z,7.07
2019-02-18T18:44:19.338Z,7.93
2019-02-18T18:46:47.344Z,5.07
2019-02-18T18:49:15.557Z,7.13
2019-02-18T18:51:43.237Z,5.97
2019-02-18T18:54:11.719Z,6.70
2019-02-18T18:56:39.790Z,6.30
2019-02-18T18:59:07.909Z,5.80
2019-02-18T19:01:36.024Z,4.50
2019-02-18T19:04:04.583Z,4.90
2019-02-18T19:06:32.253Z,6.70
2019-02-18T19:09:00.269Z,5.70
2019-02-18T19:11:30.140Z,6.47
2019-02-18T19:13:57.998Z,5.10
2019-02-18T19:16:25.961Z,6.00
2019-02-18T19:18:53.963Z,6.20
2019-02-18T19:21:22.152Z,6.10
2019-02-18T19:23:49.825Z,7.77
2019-02-18T19:26:17.554Z,8.70
2019-02-18T19:28:46.575Z,3.93
2019-02-18T19:31:14.634Z,6.70
2019-02-18T19:33:42.762Z,4.50
2019-02-18T19:36:11.108Z,6.20
2019-02-18T19:38:39.101Z,5.20
2019-02-18T19:41:07.102Z,6.90
2019-02-18T19:43:35.610Z,6.13
2019-02-18T19:46:03.567Z,4.57
2019-02-18T19:48:31.796Z,4.90
2019-02-18T19:50:59.813Z,5.70
2019-02-18T19:53:28.079Z,5.20
2019-02-18T19:55:56.654Z,5.00
2019-02-18T19:58:24.745Z,4.67
2019-02-18T20:00:53.023Z,4.20
2019-02-18T20:03:20.690Z,8.17
2019-02-18T20:05:48.559Z,6.73
2019-02-18T20:08:17.133Z,7.70
2019-02-18T20:10:45.293Z,6.83
2019-02-18T20:13:13.561Z,6.67
2019-02-18T20:15:41.237Z,5.20
2019-02-18T20:18:09.679Z,5.17
2019-02-18T20:20:37.800Z,7.07
2019-02-18T20:23:06.004Z,8.03
2019-02-18T20:25:34.374Z,9.07
2019-02-18T20:28:02.307Z,4.83
2019-02-18T20:30:30.395Z,6.47
2019-02-18T20:32:58.462Z,6.70
2019-02-18T20:35:26.737Z,5.67
2019-02-18T20:37:54.915Z,5.57
2019-02-18T20:40:23.192Z,5.00
2019-02-18T20:42:51.281Z,7.90
2019-02-18T20:45:19.333Z,5.03
2019-02-18T20:47:47.224Z,7.83
2019-02-18T20:50:15.049Z,7.87
2019-02-18T20:52:42.712Z,6.00
2019-02-18T20:55:10.786Z,6.20
2019-02-18T20:57:38.728Z,8.50
2019-02-18T21:00:11.043Z,5.20
2019-02-18T21:02:39.082Z,10.50
2019-02-18T21:05:07.293Z,11.20
2019-02-18T21:07:34.940Z,7.40
2019-02-18T21:10:03.345Z,7.83
2019-02-18T21:12:31.835Z,7.80
2019-02-18T21:15:00.290Z,5.33
2019-02-18T21:17:28.375Z,11.90
2019-02-18T21:19:56.101Z,7.37
2019-02-18T21:22:24.445Z,7.20
2019-02-18T21:24:52.094Z,8.40
2019-02-18T21:27:20.046Z,9.67
2019-02-18T21:29:47.961Z,7.80
2019-02-18T21:32:15.954Z,8.97
2019-02-18T21:34:43.964Z,7.20
2019-02-18T21:37:11.642Z,8.50
2019-02-18T21:39:39.642Z,7.43
2019-02-18T21:42:07.322Z,7.83
2019-02-18T21:44:37.185Z,7.60
2019-02-18T21:47:04.808Z,7.03
2019-02-18T21:49:32.697Z,6.97
2019-02-18T21:52:00.694Z,8.83
2019-02-18T21:54:28.345Z,10.67
2019-02-18T21:56:56.416Z,15.33
2019-02-18T21:59:24.450Z,9.93
2019-02-18T22:01:52.626Z,6.70
2019-02-18T22:04:20.309Z,8.87
2019-02-18T22:06:47.985Z,9.17
2019-02-18T22:09:15.932Z,8.87
2019-02-18T22:11:43.941Z,7.07
2019-02-18T22:14:12.265Z,8.80
2019-02-18T22:16:39.934Z,7.40
2019-02-18T22:19:08.473Z,8.30
2019-02-18T22:21:36.409Z,7.60
2019-02-18T22:24:04.756Z,7.70
2019-02-18T22:26:33.054Z,9.97
2019-02-18T22:29:01.057Z,6.73
2019-02-18T22:31:29.789Z,6.33
2019-02-18T22:33:57.756Z,6.90
2019-02-18T22:36:25.680Z,5.93
2019-02-18T22:38:53.344Z,8.23
2019-02-18T22:41:21.893Z,10.20
2019-02-18T22:43:50.164Z,11.53
2019-02-18T22:46:18.085Z,9.90
2019-02-18T22:48:46.045Z,9.13
2019-02-18T22:51:14.254Z,7.87
2019-02-18T22:53:42.608Z,8.37
2019-02-18T22:56:10.353Z,15.03
2019-02-18T22:58:38.695Z,9.50
2019-02-18T23:01:08.393Z,7.70
2019-02-18T23:03:36.292Z,7.97
2019-02-18T23:06:04.253Z,11.60
2019-02-18T23:08:32.260Z,8.00
2019-02-18T23:11:00.782Z,9.10
2019-02-18T23:13:29.588Z,10.23
2019-02-18T23:15:57.250Z,9.47
2019-02-18T23:18:25.922Z,10.20
2019-02-18T23:20:53.605Z,7.47
2019-02-18T23:23:21.252Z,5.83
2019-02-18T23:25:49.180Z,9.60
2019-02-18T23:28:18.201Z,8.57
2019-02-18T23:30:46.448Z,5.83
2019-02-18T23:33:14.105Z,6.63
2019-02-18T23:35:42.081Z,7.20
2019-02-18T23:38:09.743Z,7.70
2019-02-18T23:40:37.397Z,8.57
2019-02-18T23:43:05.349Z,8.63
2019-02-18T23:45:33.626Z,7.53
2019-02-18T23:48:01.858Z,8.30
2019-02-18T23:50:29.518Z,5.70
2019-02-18T23:52:57.912Z,7.13
2019-02-18T23:55:26.282Z,6.37
2019-02-18T23:57:54.327Z,5.37
